Le Marin, Martinique
Current Conditions -  °F | °C
As of 2:30 PM on Tuesday 27 Jan 2015 (Local Time) from TFFF Reporting Station
Few Clouds Few Clouds  
Wind Chill: 84°   Ceiling: Unl
Heat Index: 88°   Visibility: 6mi
Dew Point: 70°   Wind: 20mph
Humidity: 62%   Direction: 100°E
Pressure: 29.94"   Gusts: NA
Location:  14.47°N, 60.87°W
Report Text: TFFF 271830Z AUTO 10017KT 9999 FEW033 29/21 Q1014
Loading
Personal Weather Stations






























Interactive Weather Map New forecast layout! Learn more

10-Day Weather Forecast

Advertisements
Track Severe Weather on mobile